createdAt,value
2022-12-05T00:01:45.797Z,3.00
2022-12-05T00:04:15.579Z,3.00
2022-12-05T00:06:44.454Z,3.00
2022-12-05T00:09:14.266Z,2.90
2022-12-05T00:11:44.045Z,3.00
2022-12-05T00:14:13.444Z,2.90
2022-12-05T00:16:44.835Z,2.90
2022-12-05T00:19:15.044Z,2.90
2022-12-05T00:21:43.886Z,2.90
2022-12-05T00:24:14.898Z,2.90
2022-12-05T00:26:43.860Z,2.90
2022-12-05T00:29:12.607Z,2.90
2022-12-05T00:31:41.138Z,2.90
2022-12-05T00:34:11.387Z,2.90
2022-12-05T00:36:39.704Z,2.90
2022-12-05T00:39:10.342Z,2.90
2022-12-05T00:41:38.891Z,2.90
2022-12-05T00:44:07.786Z,2.90
2022-12-05T00:46:37.207Z,2.90
2022-12-05T00:49:06.295Z,2.90
2022-12-05T00:51:37.609Z,2.90
2022-12-05T00:54:08.098Z,2.90
2022-12-05T00:56:36.571Z,2.90
2022-12-05T00:59:06.855Z,2.90
2022-12-05T01:01:37.588Z,2.90
2022-12-05T01:04:09.623Z,2.90
2022-12-05T01:06:40.258Z,2.90
2022-12-05T01:09:09.856Z,2.90
2022-12-05T01:11:41.474Z,2.90
2022-12-05T01:14:10.605Z,2.90
2022-12-05T01:16:40.888Z,3.00
2022-12-05T01:19:12.604Z,3.00
2022-12-05T01:21:42.598Z,3.00
2022-12-05T01:24:11.561Z,2.90
2022-12-05T01:26:41.312Z,2.90
2022-12-05T01:29:09.707Z,2.90
2022-12-05T01:31:38.823Z,2.90
2022-12-05T01:34:13.915Z,2.90
2022-12-05T01:36:43.978Z,2.90
2022-12-05T01:39:13.545Z,2.90
2022-12-05T01:41:44.338Z,2.90
2022-12-05T01:44:45.830Z,2.90
2022-12-05T01:47:16.964Z,2.90
2022-12-05T01:49:45.819Z,2.90
2022-12-05T01:52:19.675Z,2.90
2022-12-05T01:54:49.495Z,2.90
2022-12-05T01:57:18.014Z,2.90
2022-12-05T01:59:50.836Z,2.90
2022-12-05T02:02:19.943Z,2.90
2022-12-05T02:05:00.395Z,2.90
2022-12-05T02:07:31.102Z,2.90
2022-12-05T02:09:59.508Z,2.90
2022-12-05T02:12:27.935Z,2.80
2022-12-05T02:15:14.869Z,2.90
2022-12-05T02:17:49.009Z,2.80
2022-12-05T02:20:33.693Z,2.80
2022-12-05T02:23:23.504Z,2.80
2022-12-05T02:26:06.172Z,2.90
2022-12-05T02:28:55.154Z,2.80
2022-12-05T02:31:35.065Z,2.90
2022-12-05T02:34:11.748Z,2.90
2022-12-05T02:36:45.773Z,2.80
2022-12-05T02:39:18.395Z,2.80
2022-12-05T02:41:52.830Z,2.80
2022-12-05T02:44:26.053Z,2.80
2022-12-05T02:46:56.652Z,2.80
2022-12-05T02:49:30.596Z,2.80
2022-12-05T02:52:00.814Z,2.80
2022-12-05T02:54:32.914Z,2.80
2022-12-05T02:57:02.047Z,2.80
2022-12-05T02:59:30.433Z,2.80
2022-12-05T03:01:59.958Z,2.80
2022-12-05T03:04:30.363Z,2.80
2022-12-05T03:07:01.869Z,2.80
2022-12-05T03:09:34.246Z,2.80
2022-12-05T03:12:08.876Z,2.80
2022-12-05T03:14:40.318Z,2.80
2022-12-05T03:17:14.763Z,2.80
2022-12-05T03:19:49.345Z,2.80
2022-12-05T03:22:23.414Z,2.80
2022-12-05T03:24:51.885Z,2.80
2022-12-05T03:27:26.996Z,2.80
2022-12-05T03:30:01.893Z,2.80
2022-12-05T03:32:38.320Z,2.80
2022-12-05T03:35:10.425Z,2.80
2022-12-05T03:37:48.435Z,2.80
2022-12-05T03:40:33.363Z,2.80
2022-12-05T03:43:09.232Z,2.80
2022-12-05T03:45:45.132Z,2.80
2022-12-05T03:48:20.377Z,2.70
2022-12-05T03:50:50.045Z,2.80
2022-12-05T03:53:21.616Z,2.70
2022-12-05T03:55:58.154Z,2.70
2022-12-05T03:58:31.704Z,2.70
2022-12-05T04:01:02.666Z,2.70
2022-12-05T04:03:40.315Z,2.70
2022-12-05T04:06:15.122Z,2.70
2022-12-05T04:08:48.371Z,2.70
2022-12-05T04:11:20.873Z,2.60
2022-12-05T04:13:52.506Z,2.60
2022-12-05T04:16:41.670Z,2.60
2022-12-05T04:19:18.246Z,2.60
2022-12-05T04:21:49.713Z,2.60
2022-12-05T04:24:38.488Z,2.60
2022-12-05T04:27:24.123Z,2.70
2022-12-05T04:30:00.676Z,2.60
2022-12-05T04:32:33.900Z,2.70
2022-12-05T04:35:08.471Z,2.60
2022-12-05T04:37:42.067Z,2.60
2022-12-05T04:40:14.908Z,2.70
2022-12-05T04:42:45.331Z,2.60
2022-12-05T04:45:17.045Z,2.60
2022-12-05T04:47:50.181Z,2.70
2022-12-05T04:50:20.927Z,2.70
2022-12-05T04:52:53.197Z,2.60
2022-12-05T04:55:26.082Z,2.60
2022-12-05T04:58:08.725Z,2.60
2022-12-05T05:00:43.559Z,2.60
2022-12-05T05:03:16.180Z,2.60
2022-12-05T05:05:49.021Z,2.60
2022-12-05T05:08:22.452Z,2.60
2022-12-05T05:10:58.909Z,2.60
2022-12-05T05:13:27.263Z,2.60
2022-12-05T05:15:55.665Z,2.60
2022-12-05T05:18:23.781Z,2.60
2022-12-05T05:20:53.282Z,2.60
2022-12-05T05:23:21.483Z,2.50
2022-12-05T05:25:54.440Z,2.50
2022-12-05T05:28:22.707Z,2.60
2022-12-05T05:30:50.881Z,2.60
2022-12-05T05:33:19.028Z,2.60
2022-12-05T05:35:47.134Z,2.60
2022-12-05T05:38:16.656Z,2.50
2022-12-05T05:40:44.593Z,2.50
2022-12-05T05:43:12.665Z,2.50
2022-12-05T05:45:41.112Z,2.50
2022-12-05T05:48:09.242Z,2.50
2022-12-05T05:50:38.037Z,2.50
2022-12-05T05:53:06.111Z,2.50
2022-12-05T05:55:35.663Z,2.50
2022-12-05T05:58:03.930Z,2.50
2022-12-05T06:00:32.018Z,2.50
2022-12-05T06:03:00.758Z,2.50
2022-12-05T06:05:29.048Z,2.50
2022-12-05T06:07:57.483Z,2.50
2022-12-05T06:10:25.779Z,2.50
2022-12-05T06:12:55.371Z,2.50
2022-12-05T06:15:23.373Z,2.50
2022-12-05T06:17:51.704Z,2.50
2022-12-05T06:20:20.057Z,2.50
2022-12-05T06:22:48.687Z,2.50
2022-12-05T06:25:17.073Z,2.50
2022-12-05T06:27:45.115Z,2.50
2022-12-05T06:30:15.530Z,2.50
2022-12-05T06:32:43.811Z,2.50
2022-12-05T06:35:16.056Z,2.50
2022-12-05T06:37:44.861Z,2.50
2022-12-05T06:40:14.391Z,2.50
2022-12-05T06:42:43.703Z,2.50
2022-12-05T06:45:12.771Z,2.50
2022-12-05T06:47:42.423Z,2.50
2022-12-05T06:50:11.517Z,2.40
2022-12-05T06:52:39.646Z,2.40
2022-12-05T06:55:08.536Z,2.40
2022-12-05T06:57:36.927Z,2.50
2022-12-05T07:00:24.449Z,2.50
2022-12-05T07:02:54.283Z,2.40
2022-12-05T07:05:22.959Z,2.50
2022-12-05T07:07:51.578Z,2.50
2022-12-05T07:10:20.251Z,2.50
2022-12-05T07:12:48.407Z,2.60
2022-12-05T07:15:16.707Z,2.50
2022-12-05T07:17:44.808Z,2.60
2022-12-05T07:20:17.762Z,2.60
2022-12-05T07:22:46.659Z,2.60
2022-12-05T07:25:15.267Z,2.60
2022-12-05T07:27:43.771Z,2.60
2022-12-05T07:30:12.425Z,2.70
2022-12-05T07:32:40.579Z,2.70
2022-12-05T07:35:09.429Z,2.70
2022-12-05T07:37:39.002Z,2.70
2022-12-05T07:40:07.486Z,2.70
2022-12-05T07:42:35.950Z,2.70
2022-12-05T07:45:04.248Z,2.70
2022-12-05T07:47:32.623Z,2.80
2022-12-05T07:50:01.059Z,2.80
2022-12-05T07:52:29.838Z,2.80
2022-12-05T07:54:59.407Z,2.80
2022-12-05T07:57:27.693Z,2.70
2022-12-05T07:59:56.333Z,2.70
2022-12-05T08:02:24.982Z,2.70
2022-12-05T08:04:53.162Z,2.80
2022-12-05T08:07:21.254Z,2.80
2022-12-05T08:09:49.349Z,2.80
2022-12-05T08:12:19.217Z,2.70
2022-12-05T08:14:47.388Z,2.80
2022-12-05T08:17:15.628Z,2.80
2022-12-05T08:19:43.915Z,2.80
2022-12-05T08:22:12.022Z,2.80
2022-12-05T08:24:40.853Z,2.80
2022-12-05T08:27:08.958Z,2.80
2022-12-05T08:29:38.847Z,2.80
2022-12-05T08:32:07.587Z,2.80
2022-12-05T08:34:35.725Z,2.80
2022-12-05T08:37:03.891Z,2.80
2022-12-05T08:39:38.020Z,2.90
2022-12-05T08:42:07.195Z,3.00
2022-12-05T08:44:35.504Z,3.00
2022-12-05T08:47:05.102Z,3.00
2022-12-05T08:49:33.486Z,3.10
2022-12-05T08:52:01.823Z,3.10
2022-12-05T08:54:29.992Z,3.10
2022-12-05T08:56:59.356Z,3.20
2022-12-05T08:59:27.705Z,3.20
2022-12-05T09:01:55.884Z,3.30
2022-12-05T09:04:25.387Z,3.30
2022-12-05T09:06:53.483Z,3.40
2022-12-05T09:09:21.544Z,3.40
2022-12-05T09:11:50.978Z,3.50
2022-12-05T09:14:19.328Z,3.50
2022-12-05T09:16:48.676Z,3.60
2022-12-05T09:19:20.660Z,3.50
2022-12-05T09:21:50.106Z,3.40
2022-12-05T09:24:18.327Z,3.40
2022-12-05T09:26:47.609Z,3.40
2022-12-05T09:29:18.039Z,3.30
2022-12-05T09:31:48.574Z,3.30
2022-12-05T09:34:18.669Z,3.30
2022-12-05T09:36:51.276Z,3.30
2022-12-05T09:39:21.410Z,3.30
2022-12-05T09:42:09.585Z,3.30
2022-12-05T09:45:01.906Z,3.30
2022-12-05T09:47:36.616Z,3.40
2022-12-05T09:50:15.386Z,3.40
2022-12-05T09:52:48.114Z,3.40
2022-12-05T09:55:20.289Z,3.40
2022-12-05T09:57:52.487Z,3.40
2022-12-05T10:00:21.414Z,3.40
2022-12-05T10:02:59.740Z,3.40
2022-12-05T10:05:38.479Z,3.40
2022-12-05T10:08:17.991Z,3.40
2022-12-05T10:10:49.870Z,3.40
2022-12-05T10:13:31.916Z,3.40
2022-12-05T10:16:04.130Z,3.40
2022-12-05T10:18:39.798Z,3.40
2022-12-05T10:21:16.780Z,3.40
2022-12-05T10:23:58.836Z,3.40
2022-12-05T10:26:31.389Z,3.40
2022-12-05T10:29:08.517Z,3.40
2022-12-05T10:31:39.486Z,3.30
2022-12-05T10:34:15.908Z,3.40
2022-12-05T10:36:53.946Z,3.30
2022-12-05T10:39:22.151Z,3.40
2022-12-05T10:41:52.128Z,3.40
2022-12-05T10:44:20.356Z,3.40
2022-12-05T10:46:49.160Z,3.50
2022-12-05T10:49:17.477Z,3.50
2022-12-05T10:51:46.205Z,3.50
2022-12-05T10:54:19.537Z,3.50
2022-12-05T10:56:49.199Z,3.50
2022-12-05T10:59:20.862Z,3.50
2022-12-05T11:01:51.897Z,3.60
2022-12-05T11:04:30.138Z,3.60
2022-12-05T11:07:00.864Z,3.60
2022-12-05T11:09:31.049Z,3.70
2022-12-05T11:12:05.172Z,3.70
2022-12-05T11:14:36.325Z,3.80
2022-12-05T11:17:06.875Z,3.80
2022-12-05T11:19:36.693Z,3.70
2022-12-05T11:22:07.977Z,3.70
2022-12-05T11:24:38.406Z,3.70
2022-12-05T11:27:22.868Z,3.60
2022-12-05T11:30:02.378Z,3.60
2022-12-05T11:32:31.380Z,3.60
2022-12-05T11:35:08.758Z,3.60
2022-12-05T11:37:41.873Z,3.70
2022-12-05T11:40:22.736Z,3.70
2022-12-05T11:43:14.447Z,3.70
2022-12-05T11:45:53.564Z,3.70
2022-12-05T11:48:35.799Z,3.70
2022-12-05T11:51:23.331Z,3.60
2022-12-05T11:54:06.539Z,3.60
2022-12-05T11:56:39.464Z,3.60
2022-12-05T11:59:29.535Z,3.60
2022-12-05T12:02:09.286Z,3.60
2022-12-05T12:04:51.696Z,3.60
2022-12-05T12:07:29.688Z,3.60
2022-12-05T12:10:10.399Z,3.60
2022-12-05T12:12:49.657Z,3.60
2022-12-05T12:15:51.058Z,3.60
2022-12-05T12:18:33.509Z,3.60
2022-12-05T12:21:10.110Z,3.50
2022-12-05T12:23:50.729Z,3.50
2022-12-05T12:26:27.292Z,3.50
2022-12-05T12:29:04.529Z,3.50
2022-12-05T12:31:46.183Z,3.50
2022-12-05T12:34:40.870Z,3.50
2022-12-05T12:37:19.023Z,3.50
2022-12-05T12:39:53.637Z,3.50
2022-12-05T12:42:28.550Z,3.50
2022-12-05T12:45:21.609Z,3.50
2022-12-05T12:48:04.576Z,3.40
2022-12-05T12:50:41.813Z,3.40
2022-12-05T12:53:36.123Z,3.40
2022-12-05T12:56:16.325Z,3.40
2022-12-05T12:58:51.770Z,3.30
2022-12-05T13:01:30.292Z,3.30
2022-12-05T13:04:04.328Z,3.30
2022-12-05T13:06:41.229Z,3.40
2022-12-05T13:09:17.267Z,3.40
2022-12-05T13:11:47.800Z,3.40
2022-12-05T13:14:18.630Z,3.40
2022-12-05T13:16:52.012Z,3.40
2022-12-05T13:19:29.551Z,3.50
2022-12-05T13:22:00.318Z,3.50
2022-12-05T13:24:29.792Z,3.50
2022-12-05T13:27:01.375Z,3.50
2022-12-05T13:29:34.088Z,3.50
2022-12-05T13:32:04.016Z,3.50
2022-12-05T13:34:48.658Z,3.50
2022-12-05T13:37:44.804Z,3.50
2022-12-05T13:40:48.754Z,3.50
2022-12-05T13:43:19.863Z,3.50
2022-12-05T13:46:03.084Z,3.50
2022-12-05T13:48:34.176Z,3.40
2022-12-05T13:51:06.924Z,3.40
2022-12-05T13:53:40.751Z,3.40
2022-12-05T13:56:27.540Z,3.40
2022-12-05T13:58:57.246Z,3.30
2022-12-05T14:01:53.743Z,3.30
2022-12-05T14:04:50.621Z,3.30
2022-12-05T14:07:43.203Z,3.30
2022-12-05T14:10:16.640Z,3.30
2022-12-05T14:12:51.081Z,3.30
2022-12-05T14:15:34.313Z,3.30
2022-12-05T14:18:12.230Z,3.20
2022-12-05T14:20:50.500Z,3.20
2022-12-05T14:23:45.857Z,3.20
2022-12-05T14:26:33.245Z,3.20
2022-12-05T14:29:14.840Z,3.10
2022-12-05T14:31:57.326Z,3.10
2022-12-05T14:34:30.052Z,3.10
2022-12-05T14:37:04.673Z,3.10
2022-12-05T14:39:41.982Z,3.00
2022-12-05T14:42:26.382Z,3.00
2022-12-05T14:44:58.451Z,3.00
2022-12-05T14:47:30.526Z,3.00
2022-12-05T14:50:02.826Z,3.00
2022-12-05T14:52:34.239Z,3.00
2022-12-05T14:55:07.281Z,3.00
2022-12-05T14:57:44.320Z,3.00
2022-12-05T15:00:22.418Z,2.90
2022-12-05T15:02:53.483Z,2.90
2022-12-05T15:05:27.419Z,2.90
2022-12-05T15:07:57.619Z,2.90
2022-12-05T15:10:29.503Z,2.90
2022-12-05T15:13:01.552Z,2.90
2022-12-05T15:15:37.122Z,2.90
2022-12-05T15:18:15.673Z,2.90
2022-12-05T15:20:50.591Z,2.80
2022-12-05T15:23:41.826Z,2.80
2022-12-05T15:29:18.330Z,2.80
2022-12-05T15:31:49.259Z,2.80
2022-12-05T15:34:21.724Z,2.80
2022-12-05T15:36:56.629Z,2.80
2022-12-05T15:39:28.656Z,2.80
2022-12-05T15:41:58.268Z,2.80
2022-12-05T15:44:37.530Z,2.80
2022-12-05T15:47:06.356Z,2.80
2022-12-05T15:49:34.549Z,2.70
2022-12-05T15:52:15.559Z,2.80
2022-12-05T15:54:45.105Z,2.70
2022-12-05T15:57:17.979Z,2.80
2022-12-05T15:59:51.535Z,2.80
2022-12-05T16:02:24.318Z,2.80
2022-12-05T16:04:57.940Z,2.80
2022-12-05T16:07:30.268Z,2.80
2022-12-05T16:10:01.213Z,2.80
2022-12-05T16:12:36.599Z,2.80
2022-12-05T16:15:11.662Z,2.80
2022-12-05T16:17:43.783Z,2.70
2022-12-05T16:20:21.959Z,2.70
2022-12-05T16:22:51.569Z,2.70
2022-12-05T16:25:22.959Z,2.70
2022-12-05T16:27:59.062Z,2.70
2022-12-05T16:30:30.528Z,2.70
2022-12-05T16:33:04.915Z,2.70
2022-12-05T16:35:38.110Z,2.70
2022-12-05T16:38:16.455Z,2.70
2022-12-05T16:40:57.590Z,2.70
2022-12-05T16:43:29.222Z,2.70
2022-12-05T16:46:01.013Z,2.70
2022-12-05T16:48:30.754Z,2.70
2022-12-05T16:51:19.320Z,2.70
2022-12-05T16:53:49.710Z,2.70
2022-12-05T16:56:21.798Z,2.70
2022-12-05T16:58:49.983Z,2.70
2022-12-05T17:01:21.996Z,2.70
2022-12-05T17:03:50.318Z,2.70
2022-12-05T17:06:19.240Z,2.70
2022-12-05T17:08:47.450Z,2.70
2022-12-05T17:11:18.726Z,2.70
2022-12-05T17:13:48.521Z,2.70
2022-12-05T17:16:17.364Z,2.70
2022-12-05T17:18:47.239Z,2.70
2022-12-05T17:21:18.063Z,2.70
2022-12-05T17:23:48.207Z,2.70
2022-12-05T17:26:18.561Z,2.70
2022-12-05T17:28:46.955Z,2.70
2022-12-05T17:31:17.410Z,2.70
2022-12-05T17:33:47.953Z,2.70
2022-12-05T17:36:16.928Z,2.70
2022-12-05T17:38:45.734Z,2.70
2022-12-05T17:41:16.746Z,2.70
2022-12-05T17:43:45.725Z,2.70
2022-12-05T17:46:16.781Z,2.70
2022-12-05T17:48:46.405Z,2.70
2022-12-05T17:51:14.771Z,2.70
2022-12-05T17:53:44.515Z,2.70
2022-12-05T17:56:13.297Z,2.70
2022-12-05T17:58:41.779Z,2.70
2022-12-05T18:01:14.987Z,2.70
2022-12-05T18:03:43.414Z,2.70
2022-12-05T18:06:13.268Z,2.60
2022-12-05T18:08:43.936Z,2.60
2022-12-05T18:11:12.257Z,2.60
2022-12-05T18:13:40.382Z,2.60
2022-12-05T18:16:09.365Z,2.60
2022-12-05T18:18:38.107Z,2.70
2022-12-05T18:21:08.410Z,2.70
2022-12-05T18:23:38.683Z,2.70
2022-12-05T18:26:08.854Z,2.70
2022-12-05T18:28:38.577Z,2.60
2022-12-05T18:31:11.552Z,2.70
2022-12-05T18:33:40.265Z,2.60
2022-12-05T18:36:11.458Z,2.60
2022-12-05T18:38:42.774Z,2.60
2022-12-05T18:41:11.703Z,2.60
2022-12-05T18:43:40.527Z,2.60
2022-12-05T18:46:09.046Z,2.60
2022-12-05T18:48:40.180Z,2.60
2022-12-05T18:51:13.233Z,2.60
2022-12-05T18:53:51.474Z,2.60
2022-12-05T18:56:22.712Z,2.70
2022-12-05T18:58:56.060Z,2.70
2022-12-05T19:01:24.515Z,2.70
2022-12-05T19:03:53.014Z,2.70
2022-12-05T19:06:22.977Z,2.60
2022-12-05T19:08:54.905Z,2.60
2022-12-05T19:11:23.901Z,2.60
2022-12-05T19:13:55.806Z,2.60
2022-12-05T19:16:24.671Z,2.60
2022-12-05T19:18:56.228Z,2.70
2022-12-05T19:21:24.932Z,2.60
2022-12-05T19:23:56.079Z,2.60
2022-12-05T19:26:25.306Z,2.60
2022-12-05T19:28:53.481Z,2.60
2022-12-05T19:31:24.023Z,2.60
2022-12-05T19:33:54.531Z,2.60
2022-12-05T19:36:23.990Z,2.60
2022-12-05T19:38:55.367Z,2.60
2022-12-05T19:41:25.731Z,2.60
2022-12-05T19:43:54.448Z,2.60
2022-12-05T19:46:25.132Z,2.60
2022-12-05T19:48:54.310Z,2.60
2022-12-05T19:51:22.416Z,2.60
2022-12-05T19:53:50.782Z,2.60
2022-12-05T19:56:22.917Z,2.60
2022-12-05T19:58:52.336Z,2.60
2022-12-05T20:01:22.406Z,2.60
2022-12-05T20:03:52.309Z,2.60
2022-12-05T20:06:21.011Z,2.70
2022-12-05T20:08:51.194Z,2.60
2022-12-05T20:11:24.697Z,2.60
2022-12-05T20:13:54.585Z,2.60
2022-12-05T20:16:26.779Z,2.60
2022-12-05T20:18:57.985Z,2.60
2022-12-05T20:21:28.019Z,2.60
2022-12-05T20:23:56.955Z,2.60
2022-12-05T20:26:28.722Z,2.50
2022-12-05T20:28:58.846Z,2.50
2022-12-05T20:31:29.422Z,2.50
2022-12-05T20:33:58.026Z,2.50
2022-12-05T20:36:28.571Z,2.40
2022-12-05T20:38:57.380Z,2.40
2022-12-05T20:41:27.618Z,2.40
2022-12-05T20:43:57.753Z,2.30
2022-12-05T20:46:26.572Z,2.30
2022-12-05T20:48:56.455Z,2.20
2022-12-05T20:51:26.817Z,2.20
2022-12-05T20:53:55.479Z,2.10
2022-12-05T20:56:26.898Z,2.10
2022-12-05T20:58:57.090Z,2.10
2022-12-05T21:01:26.667Z,2.00
2022-12-05T21:03:55.177Z,2.00
2022-12-05T21:06:24.760Z,1.90
2022-12-05T21:08:52.876Z,1.80
2022-12-05T21:11:21.522Z,1.80
2022-12-05T21:13:51.194Z,1.70
2022-12-05T21:16:21.582Z,1.60
2022-12-05T21:18:50.492Z,1.60
2022-12-05T21:21:20.799Z,1.50
2022-12-05T21:23:54.286Z,1.50
2022-12-05T21:26:23.312Z,1.50
2022-12-05T21:28:52.950Z,1.40
2022-12-05T21:31:24.157Z,1.40
2022-12-05T21:33:54.056Z,1.30
2022-12-05T21:36:23.158Z,1.20
2022-12-05T21:38:56.005Z,1.30
2022-12-05T21:41:25.323Z,1.30
2022-12-05T21:43:56.041Z,1.20
2022-12-05T21:46:24.572Z,1.20
2022-12-05T21:48:53.119Z,1.20
2022-12-05T21:51:21.846Z,1.20
2022-12-05T21:53:50.187Z,1.20
2022-12-05T21:56:22.993Z,1.20
2022-12-05T21:58:51.793Z,1.10
2022-12-05T22:01:23.644Z,1.10
2022-12-05T22:03:53.827Z,1.10
2022-12-05T22:06:21.926Z,1.10
2022-12-05T22:08:50.264Z,1.10
2022-12-05T22:11:20.401Z,1.10
2022-12-05T22:13:49.923Z,1.00
2022-12-05T22:16:18.860Z,1.00
2022-12-05T22:18:48.744Z,1.00
2022-12-05T22:21:18.697Z,1.00
2022-12-05T22:23:47.406Z,1.00
2022-12-05T22:26:17.123Z,1.00
2022-12-05T22:28:45.466Z,1.00
2022-12-05T22:31:15.387Z,1.00
2022-12-05T22:33:43.984Z,1.00
2022-12-05T22:36:15.702Z,1.00
2022-12-05T22:38:45.314Z,1.00
2022-12-05T22:41:14.662Z,1.00
2022-12-05T22:43:44.253Z,1.00
2022-12-05T22:46:14.891Z,0.90
2022-12-05T22:48:43.267Z,0.90
2022-12-05T22:51:13.619Z,0.90
2022-12-05T22:53:41.910Z,0.90
2022-12-05T22:56:12.254Z,0.90
2022-12-05T22:58:41.351Z,0.90
2022-12-05T23:01:11.034Z,0.90
2022-12-05T23:03:39.292Z,0.90
2022-12-05T23:06:11.725Z,0.90
2022-12-05T23:08:42.512Z,0.90
2022-12-05T23:11:11.551Z,0.90
2022-12-05T23:13:40.484Z,0.90
2022-12-05T23:16:10.511Z,0.90
2022-12-05T23:18:47.751Z,0.90
2022-12-05T23:21:18.014Z,0.90
2022-12-05T23:23:48.195Z,0.90
2022-12-05T23:26:16.884Z,0.90
2022-12-05T23:28:44.999Z,0.90
2022-12-05T23:31:14.328Z,0.90
2022-12-05T23:33:42.760Z,0.90
2022-12-05T23:36:11.990Z,0.90
2022-12-05T23:38:41.832Z,0.90
2022-12-05T23:41:14.319Z,0.90
2022-12-05T23:43:44.378Z,0.90
2022-12-05T23:46:14.427Z,0.90
2022-12-05T23:48:42.709Z,0.90
2022-12-05T23:51:12.232Z,0.90
2022-12-05T23:53:41.767Z,0.90
2022-12-05T23:56:12.378Z,0.90
2022-12-05T23:58:41.082Z,0.90
